sensor_id;sensor_type;location;lat;lon;timestamp;P1;durP1;ratioP1;P2;durP2;ratioP2
22026;SDS011;11177;50.966;10.070;2023-11-19T00:02:11;1.10;;;0.90;;
22026;SDS011;11177;50.966;10.070;2023-11-19T00:04:38;1.48;;;0.90;;
22026;SDS011;11177;50.966;10.070;2023-11-19T00:07:08;1.10;;;1.00;;
22026;SDS011;11177;50.966;10.070;2023-11-19T00:09:37;0.85;;;0.85;;
22026;SDS011;11177;50.966;10.070;2023-11-19T00:12:04;0.80;;;0.80;;
22026;SDS011;11177;50.966;10.070;2023-11-19T00:14:31;0.80;;;0.80;;
22026;SDS011;11177;50.966;10.070;2023-11-19T00:16:58;0.90;;;0.80;;
22026;SDS011;11177;50.966;10.070;2023-11-19T00:19:25;1.13;;;0.85;;
22026;SDS011;11177;50.966;10.070;2023-11-19T00:21:52;0.82;;;0.82;;
22026;SDS011;11177;50.966;10.070;2023-11-19T00:24:20;1.90;;;0.85;;
22026;SDS011;11177;50.966;10.070;2023-11-19T00:26:47;0.95;;;0.90;;
22026;SDS011;11177;50.966;10.070;2023-11-19T00:29:13;1.00;;;1.00;;
22026;SDS011;11177;50.966;10.070;2023-11-19T00:31:40;1.02;;;0.90;;
22026;SDS011;11177;50.966;10.070;2023-11-19T00:34:07;0.80;;;0.80;;
22026;SDS011;11177;50.966;10.070;2023-11-19T00:36:34;0.90;;;0.90;;
22026;SDS011;11177;50.966;10.070;2023-11-19T00:39:01;3.20;;;0.90;;
22026;SDS011;11177;50.966;10.070;2023-11-19T00:41:28;0.75;;;0.75;;
22026;SDS011;11177;50.966;10.070;2023-11-19T00:43:55;0.80;;;0.80;;
22026;SDS011;11177;50.966;10.070;2023-11-19T00:46:22;0.60;;;0.60;;
22026;SDS011;11177;50.966;10.070;2023-11-19T00:48:49;0.73;;;0.70;;
22026;SDS011;11177;50.966;10.070;2023-11-19T00:51:16;0.93;;;0.70;;
22026;SDS011;11177;50.966;10.070;2023-11-19T00:53:43;0.70;;;0.60;;
22026;SDS011;11177;50.966;10.070;2023-11-19T00:56:10;1.65;;;0.73;;
22026;SDS011;11177;50.966;10.070;2023-11-19T00:58:38;0.65;;;0.60;;
22026;SDS011;11177;50.966;10.070;2023-11-19T01:01:05;0.70;;;0.70;;
22026;SDS011;11177;50.966;10.070;2023-11-19T01:03:32;0.70;;;0.70;;
22026;SDS011;11177;50.966;10.070;2023-11-19T01:06:00;0.98;;;0.60;;
22026;SDS011;11177;50.966;10.070;2023-11-19T01:08:29;0.50;;;0.47;;
22026;SDS011;11177;50.966;10.070;2023-11-19T01:10:56;0.63;;;0.63;;
22026;SDS011;11177;50.966;10.070;2023-11-19T01:13:23;2.85;;;0.85;;
22026;SDS011;11177;50.966;10.070;2023-11-19T01:15:51;1.50;;;0.70;;
22026;SDS011;11177;50.966;10.070;2023-11-19T01:18:18;1.08;;;0.65;;
22026;SDS011;11177;50.966;10.070;2023-11-19T01:20:45;0.55;;;0.55;;
22026;SDS011;11177;50.966;10.070;2023-11-19T01:23:12;0.70;;;0.70;;
22026;SDS011;11177;50.966;10.070;2023-11-19T01:25:38;0.60;;;0.60;;
22026;SDS011;11177;50.966;10.070;2023-11-19T01:28:05;1.00;;;0.70;;
22026;SDS011;11177;50.966;10.070;2023-11-19T01:30:32;0.70;;;0.68;;
22026;SDS011;11177;50.966;10.070;2023-11-19T01:32:59;0.63;;;0.63;;
22026;SDS011;11177;50.966;10.070;2023-11-19T01:35:26;0.77;;;0.75;;
22026;SDS011;11177;50.966;10.070;2023-11-19T01:37:54;1.00;;;0.93;;
22026;SDS011;11177;50.966;10.070;2023-11-19T01:40:21;0.80;;;0.80;;
22026;SDS011;11177;50.966;10.070;2023-11-19T01:42:48;2.05;;;1.00;;
22026;SDS011;11177;50.966;10.070;2023-11-19T01:45:28;1.65;;;0.90;;
22026;SDS011;11177;50.966;10.070;2023-11-19T01:47:57;0.90;;;0.90;;
22026;SDS011;11177;50.966;10.070;2023-11-19T01:50:25;0.90;;;0.90;;
22026;SDS011;11177;50.966;10.070;2023-11-19T01:52:53;3.00;;;1.10;;
22026;SDS011;11177;50.966;10.070;2023-11-19T01:55:20;1.23;;;0.88;;
22026;SDS011;11177;50.966;10.070;2023-11-19T01:57:48;0.90;;;0.90;;
22026;SDS011;11177;50.966;10.070;2023-11-19T02:02:58;0.80;;;0.80;;
22026;SDS011;11177;50.966;10.070;2023-11-19T02:05:25;0.82;;;0.82;;
22026;SDS011;11177;50.966;10.070;2023-11-19T02:07:52;1.00;;;0.98;;
22026;SDS011;11177;50.966;10.070;2023-11-19T02:10:19;0.90;;;0.90;;
22026;SDS011;11177;50.966;10.070;2023-11-19T02:12:46;1.75;;;1.05;;
22026;SDS011;11177;50.966;10.070;2023-11-19T02:15:13;1.00;;;1.00;;
22026;SDS011;11177;50.966;10.070;2023-11-19T02:17:40;1.20;;;1.10;;
22026;SDS011;11177;50.966;10.070;2023-11-19T02:20:07;1.27;;;1.17;;
22026;SDS011;11177;50.966;10.070;2023-11-19T02:22:36;1.10;;;1.10;;
22026;SDS011;11177;50.966;10.070;2023-11-19T02:25:11;1.45;;;1.35;;
22026;SDS011;11177;50.966;10.070;2023-11-19T02:27:54;1.55;;;1.10;;
22026;SDS011;11177;50.966;10.070;2023-11-19T02:30:23;1.30;;;1.20;;
22026;SDS011;11177;50.966;10.070;2023-11-19T02:32:53;1.17;;;1.10;;
22026;SDS011;11177;50.966;10.070;2023-11-19T02:35:27;1.50;;;1.40;;
22026;SDS011;11177;50.966;10.070;2023-11-19T02:37:54;1.42;;;1.33;;
22026;SDS011;11177;50.966;10.070;2023-11-19T02:40:21;1.50;;;1.40;;
22026;SDS011;11177;50.966;10.070;2023-11-19T02:42:50;2.72;;;1.40;;
22026;SDS011;11177;50.966;10.070;2023-11-19T02:45:17;1.30;;;1.20;;
22026;SDS011;11177;50.966;10.070;2023-11-19T02:47:44;1.73;;;1.40;;
22026;SDS011;11177;50.966;10.070;2023-11-19T02:50:11;1.65;;;1.50;;
22026;SDS011;11177;50.966;10.070;2023-11-19T02:52:41;1.45;;;1.30;;
22026;SDS011;11177;50.966;10.070;2023-11-19T02:55:09;1.48;;;1.38;;
22026;SDS011;11177;50.966;10.070;2023-11-19T02:57:39;1.40;;;1.30;;
22026;SDS011;11177;50.966;10.070;2023-11-19T03:00:14;1.40;;;1.30;;
22026;SDS011;11177;50.966;10.070;2023-11-19T03:02:44;1.90;;;1.30;;
22026;SDS011;11177;50.966;10.070;2023-11-19T03:05:13;1.60;;;1.30;;
22026;SDS011;11177;50.966;10.070;2023-11-19T03:07:43;1.33;;;1.23;;
22026;SDS011;11177;50.966;10.070;2023-11-19T03:10:10;1.40;;;1.30;;
22026;SDS011;11177;50.966;10.070;2023-11-19T03:12:41;1.30;;;1.20;;
22026;SDS011;11177;50.966;10.070;2023-11-19T03:15:10;1.45;;;1.30;;
22026;SDS011;11177;50.966;10.070;2023-11-19T03:17:40;1.50;;;1.40;;
22026;SDS011;11177;50.966;10.070;2023-11-19T03:20:09;1.23;;;1.13;;
22026;SDS011;11177;50.966;10.070;2023-11-19T03:22:37;1.48;;;1.38;;
22026;SDS011;11177;50.966;10.070;2023-11-19T03:25:04;1.50;;;1.40;;
22026;SDS011;11177;50.966;10.070;2023-11-19T03:27:35;2.08;;;1.20;;
22026;SDS011;11177;50.966;10.070;2023-11-19T03:30:03;1.90;;;1.20;;
22026;SDS011;11177;50.966;10.070;2023-11-19T03:32:31;1.45;;;1.35;;
22026;SDS011;11177;50.966;10.070;2023-11-19T03:34:58;1.20;;;1.10;;
22026;SDS011;11177;50.966;10.070;2023-11-19T03:37:26;1.40;;;1.30;;
22026;SDS011;11177;50.966;10.070;2023-11-19T03:39:53;1.98;;;1.10;;
22026;SDS011;11177;50.966;10.070;2023-11-19T03:42:21;1.85;;;1.40;;
22026;SDS011;11177;50.966;10.070;2023-11-19T03:44:48;1.50;;;1.30;;
22026;SDS011;11177;50.966;10.070;2023-11-19T03:47:16;1.55;;;1.45;;
22026;SDS011;11177;50.966;10.070;2023-11-19T03:49:46;2.78;;;1.60;;
22026;SDS011;11177;50.966;10.070;2023-11-19T03:52:15;3.03;;;1.85;;
22026;SDS011;11177;50.966;10.070;2023-11-19T03:54:46;2.10;;;1.90;;
22026;SDS011;11177;50.966;10.070;2023-11-19T03:57:13;2.35;;;1.60;;
22026;SDS011;11177;50.966;10.070;2023-11-19T03:59:40;2.00;;;1.73;;
22026;SDS011;11177;50.966;10.070;2023-11-19T04:02:07;1.92;;;1.73;;
22026;SDS011;11177;50.966;10.070;2023-11-19T04:04:34;1.75;;;1.65;;
22026;SDS011;11177;50.966;10.070;2023-11-19T04:07:01;2.42;;;1.98;;
22026;SDS011;11177;50.966;10.070;2023-11-19T04:09:29;2.45;;;1.80;;
22026;SDS011;11177;50.966;10.070;2023-11-19T04:11:56;2.00;;;1.77;;
22026;SDS011;11177;50.966;10.070;2023-11-19T04:14:23;2.20;;;2.00;;
22026;SDS011;11177;50.966;10.070;2023-11-19T04:16:50;1.90;;;1.80;;
22026;SDS011;11177;50.966;10.070;2023-11-19T04:19:18;1.83;;;1.73;;
22026;SDS011;11177;50.966;10.070;2023-11-19T04:21:45;2.05;;;1.85;;
22026;SDS011;11177;50.966;10.070;2023-11-19T04:24:13;2.30;;;2.10;;
22026;SDS011;11177;50.966;10.070;2023-11-19T04:26:41;3.00;;;2.67;;
22026;SDS011;11177;50.966;10.070;2023-11-19T04:29:09;4.18;;;2.80;;
22026;SDS011;11177;50.966;10.070;2023-11-19T04:31:37;3.15;;;2.85;;
22026;SDS011;11177;50.966;10.070;2023-11-19T04:34:05;4.63;;;3.08;;
22026;SDS011;11177;50.966;10.070;2023-11-19T04:36:33;4.43;;;3.40;;
22026;SDS011;11177;50.966;10.070;2023-11-19T04:39:00;3.90;;;3.45;;
22026;SDS011;11177;50.966;10.070;2023-11-19T04:41:27;6.80;;;4.00;;
22026;SDS011;11177;50.966;10.070;2023-11-19T04:43:54;4.35;;;3.72;;
22026;SDS011;11177;50.966;10.070;2023-11-19T04:46:21;8.07;;;3.70;;
22026;SDS011;11177;50.966;10.070;2023-11-19T04:48:50;3.40;;;3.10;;
22026;SDS011;11177;50.966;10.070;2023-11-19T04:51:17;3.38;;;2.42;;
22026;SDS011;11177;50.966;10.070;2023-11-19T04:53:44;3.00;;;2.53;;
22026;SDS011;11177;50.966;10.070;2023-11-19T04:56:11;2.55;;;2.35;;
22026;SDS011;11177;50.966;10.070;2023-11-19T04:58:38;1.80;;;1.70;;
22026;SDS011;11177;50.966;10.070;2023-11-19T05:01:05;1.73;;;1.63;;
22026;SDS011;11177;50.966;10.070;2023-11-19T05:03:32;1.63;;;1.52;;
22026;SDS011;11177;50.966;10.070;2023-11-19T05:06:00;1.50;;;1.40;;
22026;SDS011;11177;50.966;10.070;2023-11-19T05:08:26;1.38;;;1.27;;
22026;SDS011;11177;50.966;10.070;2023-11-19T05:10:53;1.45;;;1.35;;
22026;SDS011;11177;50.966;10.070;2023-11-19T05:13:21;1.40;;;1.30;;
22026;SDS011;11177;50.966;10.070;2023-11-19T05:15:50;1.30;;;1.20;;
22026;SDS011;11177;50.966;10.070;2023-11-19T05:18:17;1.40;;;1.30;;
22026;SDS011;11177;50.966;10.070;2023-11-19T05:20:45;1.30;;;1.20;;
22026;SDS011;11177;50.966;10.070;2023-11-19T05:23:12;1.40;;;1.30;;
22026;SDS011;11177;50.966;10.070;2023-11-19T05:25:42;1.40;;;1.13;;
22026;SDS011;11177;50.966;10.070;2023-11-19T05:28:08;1.20;;;1.10;;
22026;SDS011;11177;50.966;10.070;2023-11-19T05:30:35;1.55;;;1.20;;
22026;SDS011;11177;50.966;10.070;2023-11-19T05:33:02;1.10;;;1.00;;
22026;SDS011;11177;50.966;10.070;2023-11-19T05:35:29;1.60;;;1.08;;
22026;SDS011;11177;50.966;10.070;2023-11-19T05:37:56;1.20;;;1.10;;
22026;SDS011;11177;50.966;10.070;2023-11-19T05:40:23;1.33;;;1.08;;
22026;SDS011;11177;50.966;10.070;2023-11-19T05:42:49;1.30;;;1.20;;
22026;SDS011;11177;50.966;10.070;2023-11-19T05:45:16;1.30;;;1.20;;
22026;SDS011;11177;50.966;10.070;2023-11-19T05:47:43;2.00;;;1.58;;
22026;SDS011;11177;50.966;10.070;2023-11-19T05:50:10;1.98;;;1.10;;
22026;SDS011;11177;50.966;10.070;2023-11-19T05:52:37;1.95;;;1.27;;
22026;SDS011;11177;50.966;10.070;2023-11-19T05:55:04;3.22;;;1.00;;
22026;SDS011;11177;50.966;10.070;2023-11-19T05:57:39;5.43;;;0.98;;
22026;SDS011;11177;50.966;10.070;2023-11-19T06:00:12;1.10;;;1.00;;
22026;SDS011;11177;50.966;10.070;2023-11-19T06:02:42;1.25;;;0.95;;
22026;SDS011;11177;50.966;10.070;2023-11-19T06:05:09;1.55;;;0.98;;
22026;SDS011;11177;50.966;10.070;2023-11-19T06:07:36;1.35;;;1.00;;
22026;SDS011;11177;50.966;10.070;2023-11-19T06:10:05;2.42;;;1.00;;
22026;SDS011;11177;50.966;10.070;2023-11-19T06:12:33;1.33;;;1.10;;
22026;SDS011;11177;50.966;10.070;2023-11-19T06:15:04;2.05;;;1.00;;
22026;SDS011;11177;50.966;10.070;2023-11-19T06:17:32;1.17;;;1.08;;
22026;SDS011;11177;50.966;10.070;2023-11-19T06:19:59;1.65;;;1.27;;
22026;SDS011;11177;50.966;10.070;2023-11-19T06:22:26;1.90;;;1.00;;
22026;SDS011;11177;50.966;10.070;2023-11-19T06:24:53;1.52;;;1.10;;
22026;SDS011;11177;50.966;10.070;2023-11-19T06:27:20;1.60;;;1.50;;
22026;SDS011;11177;50.966;10.070;2023-11-19T06:29:48;2.72;;;1.20;;
22026;SDS011;11177;50.966;10.070;2023-11-19T06:32:15;1.60;;;1.20;;
22026;SDS011;11177;50.966;10.070;2023-11-19T06:34:42;1.65;;;1.27;;
22026;SDS011;11177;50.966;10.070;2023-11-19T06:37:08;2.13;;;1.38;;
22026;SDS011;11177;50.966;10.070;2023-11-19T06:39:35;2.75;;;1.50;;
22026;SDS011;11177;50.966;10.070;2023-11-19T06:42:03;1.95;;;1.65;;
22026;SDS011;11177;50.966;10.070;2023-11-19T06:44:30;2.13;;;1.38;;
22026;SDS011;11177;50.966;10.070;2023-11-19T06:46:57;4.78;;;1.30;;
22026;SDS011;11177;50.966;10.070;2023-11-19T06:49:24;1.65;;;1.38;;
22026;SDS011;11177;50.966;10.070;2023-11-19T06:51:51;2.25;;;1.30;;
22026;SDS011;11177;50.966;10.070;2023-11-19T06:54:18;3.25;;;1.30;;
22026;SDS011;11177;50.966;10.070;2023-11-19T06:56:44;2.45;;;1.30;;
22026;SDS011;11177;50.966;10.070;2023-11-19T06:59:13;1.52;;;1.35;;
22026;SDS011;11177;50.966;10.070;2023-11-19T07:01:41;4.55;;;1.63;;
22026;SDS011;11177;50.966;10.070;2023-11-19T07:04:11;2.50;;;1.40;;
22026;SDS011;11177;50.966;10.070;2023-11-19T07:06:38;3.47;;;1.30;;
22026;SDS011;11177;50.966;10.070;2023-11-19T07:09:08;3.42;;;1.42;;
22026;SDS011;11177;50.966;10.070;2023-11-19T07:11:40;1.65;;;1.20;;
22026;SDS011;11177;50.966;10.070;2023-11-19T07:14:07;4.50;;;1.50;;
22026;SDS011;11177;50.966;10.070;2023-11-19T07:16:34;2.60;;;1.13;;
22026;SDS011;11177;50.966;10.070;2023-11-19T07:19:04;3.22;;;1.20;;
22026;SDS011;11177;50.966;10.070;2023-11-19T07:21:31;4.05;;;1.27;;
22026;SDS011;11177;50.966;10.070;2023-11-19T07:24:00;2.50;;;1.10;;
22026;SDS011;11177;50.966;10.070;2023-11-19T07:26:26;4.90;;;1.27;;
22026;SDS011;11177;50.966;10.070;2023-11-19T07:28:53;6.45;;;1.50;;
22026;SDS011;11177;50.966;10.070;2023-11-19T07:31:22;2.25;;;1.20;;
22026;SDS011;11177;50.966;10.070;2023-11-19T07:33:50;5.07;;;1.40;;
22026;SDS011;11177;50.966;10.070;2023-11-19T07:36:17;4.32;;;1.70;;
22026;SDS011;11177;50.966;10.070;2023-11-19T07:38:45;6.85;;;3.97;;
22026;SDS011;11177;50.966;10.070;2023-11-19T07:41:12;8.40;;;5.13;;
22026;SDS011;11177;50.966;10.070;2023-11-19T07:43:39;5.72;;;3.00;;
22026;SDS011;11177;50.966;10.070;2023-11-19T07:46:11;2.28;;;1.45;;
22026;SDS011;11177;50.966;10.070;2023-11-19T07:48:39;3.08;;;1.55;;
22026;SDS011;11177;50.966;10.070;2023-11-19T07:51:07;1.50;;;1.10;;
22026;SDS011;11177;50.966;10.070;2023-11-19T07:53:35;3.22;;;1.20;;
22026;SDS011;11177;50.966;10.070;2023-11-19T07:56:04;1.88;;;1.25;;
22026;SDS011;11177;50.966;10.070;2023-11-19T07:58:32;3.50;;;1.17;;
22026;SDS011;11177;50.966;10.070;2023-11-19T08:00:58;2.95;;;1.30;;
22026;SDS011;11177;50.966;10.070;2023-11-19T08:03:25;6.70;;;2.90;;
22026;SDS011;11177;50.966;10.070;2023-11-19T08:05:55;4.43;;;2.50;;
22026;SDS011;11177;50.966;10.070;2023-11-19T08:08:23;5.22;;;1.90;;
22026;SDS011;11177;50.966;10.070;2023-11-19T08:10:50;7.63;;;1.65;;
22026;SDS011;11177;50.966;10.070;2023-11-19T08:13:25;5.88;;;1.35;;
22026;SDS011;11177;50.966;10.070;2023-11-19T08:15:52;7.07;;;1.50;;
22026;SDS011;11177;50.966;10.070;2023-11-19T08:18:19;5.35;;;1.35;;
22026;SDS011;11177;50.966;10.070;2023-11-19T08:20:46;4.15;;;1.20;;
22026;SDS011;11177;50.966;10.070;2023-11-19T08:23:16;5.55;;;1.30;;
22026;SDS011;11177;50.966;10.070;2023-11-19T08:25:43;5.47;;;1.33;;
22026;SDS011;11177;50.966;10.070;2023-11-19T08:28:10;5.88;;;1.42;;
22026;SDS011;11177;50.966;10.070;2023-11-19T08:30:37;7.35;;;1.33;;
22026;SDS011;11177;50.966;10.070;2023-11-19T08:33:04;6.88;;;1.33;;
22026;SDS011;11177;50.966;10.070;2023-11-19T08:35:32;9.60;;;1.42;;
22026;SDS011;11177;50.966;10.070;2023-11-19T08:37:59;9.20;;;1.65;;
22026;SDS011;11177;50.966;10.070;2023-11-19T08:40:27;6.53;;;1.35;;
22026;SDS011;11177;50.966;10.070;2023-11-19T08:42:54;10.30;;;3.00;;
22026;SDS011;11177;50.966;10.070;2023-11-19T08:45:21;4.93;;;1.02;;
22026;SDS011;11177;50.966;10.070;2023-11-19T08:47:48;7.97;;;1.35;;
22026;SDS011;11177;50.966;10.070;2023-11-19T08:50:15;4.43;;;1.20;;
22026;SDS011;11177;50.966;10.070;2023-11-19T08:52:42;12.73;;;1.60;;
22026;SDS011;11177;50.966;10.070;2023-11-19T08:55:09;6.88;;;1.20;;
22026;SDS011;11177;50.966;10.070;2023-11-19T08:57:36;10.55;;;1.80;;
22026;SDS011;11177;50.966;10.070;2023-11-19T09:00:03;8.82;;;1.40;;
22026;SDS011;11177;50.966;10.070;2023-11-19T09:02:37;10.35;;;1.38;;
22026;SDS011;11177;50.966;10.070;2023-11-19T09:05:05;9.15;;;1.70;;
22026;SDS011;11177;50.966;10.070;2023-11-19T09:07:34;16.58;;;2.50;;
22026;SDS011;11177;50.966;10.070;2023-11-19T09:10:01;6.57;;;1.52;;
22026;SDS011;11177;50.966;10.070;2023-11-19T09:12:28;12.88;;;1.80;;
22026;SDS011;11177;50.966;10.070;2023-11-19T09:14:55;6.70;;;1.80;;
22026;SDS011;11177;50.966;10.070;2023-11-19T09:17:22;7.35;;;2.10;;
22026;SDS011;11177;50.966;10.070;2023-11-19T09:19:49;11.75;;;2.80;;
22026;SDS011;11177;50.966;10.070;2023-11-19T09:22:16;7.95;;;1.80;;
22026;SDS011;11177;50.966;10.070;2023-11-19T09:24:43;8.43;;;1.75;;
22026;SDS011;11177;50.966;10.070;2023-11-19T09:27:11;9.98;;;1.90;;
22026;SDS011;11177;50.966;10.070;2023-11-19T09:29:38;8.95;;;1.77;;
22026;SDS011;11177;50.966;10.070;2023-11-19T09:32:06;10.75;;;1.55;;
22026;SDS011;11177;50.966;10.070;2023-11-19T09:34:34;11.57;;;2.00;;
22026;SDS011;11177;50.966;10.070;2023-11-19T09:37:01;7.68;;;1.52;;
22026;SDS011;11177;50.966;10.070;2023-11-19T09:39:28;10.05;;;1.73;;
22026;SDS011;11177;50.966;10.070;2023-11-19T09:41:55;7.07;;;1.55;;
22026;SDS011;11177;50.966;10.070;2023-11-19T09:44:22;16.58;;;2.05;;
22026;SDS011;11177;50.966;10.070;2023-11-19T09:46:51;10.05;;;2.20;;
22026;SDS011;11177;50.966;10.070;2023-11-19T09:49:20;8.52;;;2.40;;
22026;SDS011;11177;50.966;10.070;2023-11-19T09:52:01;9.30;;;1.92;;
22026;SDS011;11177;50.966;10.070;2023-11-19T09:54:29;8.27;;;1.67;;
22026;SDS011;11177;50.966;10.070;2023-11-19T09:56:56;12.57;;;1.50;;
22026;SDS011;11177;50.966;10.070;2023-11-19T09:59:26;8.25;;;1.45;;
22026;SDS011;11177;50.966;10.070;2023-11-19T10:01:54;7.50;;;1.50;;
22026;SDS011;11177;50.966;10.070;2023-11-19T10:04:23;7.22;;;1.52;;
22026;SDS011;11177;50.966;10.070;2023-11-19T10:06:51;6.22;;;1.77;;
22026;SDS011;11177;50.966;10.070;2023-11-19T10:09:18;9.27;;;1.90;;
22026;SDS011;11177;50.966;10.070;2023-11-19T10:11:45;9.45;;;2.13;;
22026;SDS011;11177;50.966;10.070;2023-11-19T10:14:12;9.35;;;1.80;;
22026;SDS011;11177;50.966;10.070;2023-11-19T10:16:40;7.00;;;1.60;;
22026;SDS011;11177;50.966;10.070;2023-11-19T10:19:07;8.27;;;2.00;;
22026;SDS011;11177;50.966;10.070;2023-11-19T10:21:35;11.10;;;1.48;;
22026;SDS011;11177;50.966;10.070;2023-11-19T10:24:02;11.35;;;2.50;;
22026;SDS011;11177;50.966;10.070;2023-11-19T10:26:29;8.05;;;1.50;;
22026;SDS011;11177;50.966;10.070;2023-11-19T10:28:56;9.68;;;2.20;;
22026;SDS011;11177;50.966;10.070;2023-11-19T10:31:23;11.15;;;3.17;;
22026;SDS011;11177;50.966;10.070;2023-11-19T10:33:53;11.35;;;1.83;;
22026;SDS011;11177;50.966;10.070;2023-11-19T10:36:20;9.75;;;1.60;;
22026;SDS011;11177;50.966;10.070;2023-11-19T10:38:53;10.20;;;1.67;;
22026;SDS011;11177;50.966;10.070;2023-11-19T10:41:27;5.95;;;1.75;;
22026;SDS011;11177;50.966;10.070;2023-11-19T10:43:55;8.93;;;1.70;;
22026;SDS011;11177;50.966;10.070;2023-11-19T10:46:22;10.38;;;1.80;;
22026;SDS011;11177;50.966;10.070;2023-11-19T10:48:50;9.65;;;1.45;;
22026;SDS011;11177;50.966;10.070;2023-11-19T10:51:18;11.00;;;2.20;;
22026;SDS011;11177;50.966;10.070;2023-11-19T10:53:49;9.60;;;1.85;;
22026;SDS011;11177;50.966;10.070;2023-11-19T10:56:17;10.95;;;1.92;;
22026;SDS011;11177;50.966;10.070;2023-11-19T10:58:47;9.68;;;1.90;;
22026;SDS011;11177;50.966;10.070;2023-11-19T11:01:22;9.13;;;2.22;;
22026;SDS011;11177;50.966;10.070;2023-11-19T11:03:50;10.38;;;2.50;;
22026;SDS011;11177;50.966;10.070;2023-11-19T11:06:18;11.18;;;1.98;;
22026;SDS011;11177;50.966;10.070;2023-11-19T11:08:45;11.20;;;1.60;;
22026;SDS011;11177;50.966;10.070;2023-11-19T11:11:13;8.07;;;1.83;;
22026;SDS011;11177;50.966;10.070;2023-11-19T11:13:43;9.82;;;1.70;;
22026;SDS011;11177;50.966;10.070;2023-11-19T11:16:11;7.85;;;1.98;;
22026;SDS011;11177;50.966;10.070;2023-11-19T11:18:39;9.90;;;1.67;;
22026;SDS011;11177;50.966;10.070;2023-11-19T11:21:10;8.13;;;1.70;;
22026;SDS011;11177;50.966;10.070;2023-11-19T11:23:47;12.77;;;1.90;;
22026;SDS011;11177;50.966;10.070;2023-11-19T11:26:34;6.87;;;2.40;;
22026;SDS011;11177;50.966;10.070;2023-11-19T11:29:20;12.45;;;2.15;;
22026;SDS011;11177;50.966;10.070;2023-11-19T11:32:23;13.88;;;3.38;;
22026;SDS011;11177;50.966;10.070;2023-11-19T11:38:03;9.77;;;2.20;;
22026;SDS011;11177;50.966;10.070;2023-11-19T11:40:31;11.75;;;2.50;;
22026;SDS011;11177;50.966;10.070;2023-11-19T11:42:58;13.98;;;2.70;;
22026;SDS011;11177;50.966;10.070;2023-11-19T11:48:21;12.93;;;2.90;;
22026;SDS011;11177;50.966;10.070;2023-11-19T11:50:50;11.57;;;2.40;;
22026;SDS011;11177;50.966;10.070;2023-11-19T11:53:22;15.75;;;2.45;;
22026;SDS011;11177;50.966;10.070;2023-11-19T11:55:54;10.77;;;2.22;;
22026;SDS011;11177;50.966;10.070;2023-11-19T11:58:27;13.82;;;2.80;;
22026;SDS011;11177;50.966;10.070;2023-11-19T12:00:57;15.13;;;2.30;;
22026;SDS011;11177;50.966;10.070;2023-11-19T12:03:27;15.07;;;2.20;;
22026;SDS011;11177;50.966;10.070;2023-11-19T12:05:55;14.20;;;2.28;;
22026;SDS011;11177;50.966;10.070;2023-11-19T12:08:25;8.32;;;2.33;;
22026;SDS011;11177;50.966;10.070;2023-11-19T12:10:54;14.82;;;2.17;;
22026;SDS011;11177;50.966;10.070;2023-11-19T12:13:27;11.77;;;2.22;;
22026;SDS011;11177;50.966;10.070;2023-11-19T12:16:15;11.80;;;2.17;;
22026;SDS011;11177;50.966;10.070;2023-11-19T12:18:42;14.25;;;2.50;;
22026;SDS011;11177;50.966;10.070;2023-11-19T12:21:09;11.35;;;2.17;;
22026;SDS011;11177;50.966;10.070;2023-11-19T12:23:44;11.98;;;2.42;;
22026;SDS011;11177;50.966;10.070;2023-11-19T12:28:58;13.98;;;2.08;;
22026;SDS011;11177;50.966;10.070;2023-11-19T12:31:25;15.90;;;2.38;;
22026;SDS011;11177;50.966;10.070;2023-11-19T12:33:52;13.52;;;2.20;;
22026;SDS011;11177;50.966;10.070;2023-11-19T12:36:20;10.48;;;2.17;;
22026;SDS011;11177;50.966;10.070;2023-11-19T12:38:47;14.23;;;2.45;;
22026;SDS011;11177;50.966;10.070;2023-11-19T12:41:14;16.00;;;2.80;;
22026;SDS011;11177;50.966;10.070;2023-11-19T12:43:44;16.25;;;2.47;;
22026;SDS011;11177;50.966;10.070;2023-11-19T12:46:20;13.38;;;2.65;;
22026;SDS011;11177;50.966;10.070;2023-11-19T12:48:49;12.55;;;2.28;;
22026;SDS011;11177;50.966;10.070;2023-11-19T12:51:18;12.95;;;2.17;;
22026;SDS011;11177;50.966;10.070;2023-11-19T12:53:47;16.63;;;2.38;;
22026;SDS011;11177;50.966;10.070;2023-11-19T12:56:16;17.17;;;2.30;;
22026;SDS011;11177;50.966;10.070;2023-11-19T12:58:43;15.00;;;2.97;;
22026;SDS011;11177;50.966;10.070;2023-11-19T13:01:14;13.45;;;2.90;;
22026;SDS011;11177;50.966;10.070;2023-11-19T13:03:46;17.10;;;3.15;;
22026;SDS011;11177;50.966;10.070;2023-11-19T13:06:13;12.93;;;2.97;;
22026;SDS011;11177;50.966;10.070;2023-11-19T13:08:43;16.05;;;3.25;;
22026;SDS011;11177;50.966;10.070;2023-11-19T13:11:31;17.08;;;2.90;;
22026;SDS011;11177;50.966;10.070;2023-11-19T13:14:00;17.27;;;2.95;;
22026;SDS011;11177;50.966;10.070;2023-11-19T13:16:31;11.20;;;2.72;;
22026;SDS011;11177;50.966;10.070;2023-11-19T13:18:58;15.90;;;2.67;;
22026;SDS011;11177;50.966;10.070;2023-11-19T13:21:27;15.57;;;3.10;;
22026;SDS011;11177;50.966;10.070;2023-11-19T13:23:54;18.38;;;2.60;;
22026;SDS011;11177;50.966;10.070;2023-11-19T13:26:21;12.68;;;2.78;;
22026;SDS011;11177;50.966;10.070;2023-11-19T13:28:48;13.93;;;2.15;;
22026;SDS011;11177;50.966;10.070;2023-11-19T13:31:15;16.52;;;2.88;;
22026;SDS011;11177;50.966;10.070;2023-11-19T13:33:43;15.25;;;2.95;;
22026;SDS011;11177;50.966;10.070;2023-11-19T13:36:10;19.63;;;3.03;;
22026;SDS011;11177;50.966;10.070;2023-11-19T13:38:41;16.20;;;2.90;;
22026;SDS011;11177;50.966;10.070;2023-11-19T13:41:11;12.73;;;2.33;;
22026;SDS011;11177;50.966;10.070;2023-11-19T13:43:39;18.48;;;2.80;;
22026;SDS011;11177;50.966;10.070;2023-11-19T13:46:06;12.50;;;2.78;;
22026;SDS011;11177;50.966;10.070;2023-11-19T13:48:37;15.25;;;3.30;;
22026;SDS011;11177;50.966;10.070;2023-11-19T13:51:04;12.80;;;2.53;;
22026;SDS011;11177;50.966;10.070;2023-11-19T13:53:32;13.82;;;2.30;;
22026;SDS011;11177;50.966;10.070;2023-11-19T13:56:17;15.25;;;3.33;;
22026;SDS011;11177;50.966;10.070;2023-11-19T13:58:44;15.40;;;3.13;;
22026;SDS011;11177;50.966;10.070;2023-11-19T14:01:10;13.35;;;3.42;;
22026;SDS011;11177;50.966;10.070;2023-11-19T14:03:40;16.83;;;3.10;;
22026;SDS011;11177;50.966;10.070;2023-11-19T14:06:08;14.35;;;3.50;;
22026;SDS011;11177;50.966;10.070;2023-11-19T14:08:36;15.18;;;2.65;;
22026;SDS011;11177;50.966;10.070;2023-11-19T14:11:03;15.52;;;3.05;;
22026;SDS011;11177;50.966;10.070;2023-11-19T14:13:30;16.50;;;2.40;;
22026;SDS011;11177;50.966;10.070;2023-11-19T14:15:57;12.98;;;2.38;;
22026;SDS011;11177;50.966;10.070;2023-11-19T14:18:24;13.15;;;1.77;;
22026;SDS011;11177;50.966;10.070;2023-11-19T14:20:51;13.88;;;2.60;;
22026;SDS011;11177;50.966;10.070;2023-11-19T14:23:18;14.48;;;2.17;;
22026;SDS011;11177;50.966;10.070;2023-11-19T14:25:45;14.98;;;2.45;;
22026;SDS011;11177;50.966;10.070;2023-11-19T14:28:12;16.67;;;2.58;;
22026;SDS011;11177;50.966;10.070;2023-11-19T14:30:39;17.55;;;2.63;;
22026;SDS011;11177;50.966;10.070;2023-11-19T14:33:08;14.90;;;2.22;;
22026;SDS011;11177;50.966;10.070;2023-11-19T14:35:35;16.88;;;3.28;;
22026;SDS011;11177;50.966;10.070;2023-11-19T14:38:02;15.80;;;2.75;;
22026;SDS011;11177;50.966;10.070;2023-11-19T14:40:32;17.10;;;2.75;;
22026;SDS011;11177;50.966;10.070;2023-11-19T14:43:01;18.13;;;2.80;;
22026;SDS011;11177;50.966;10.070;2023-11-19T14:45:29;17.35;;;3.08;;
22026;SDS011;11177;50.966;10.070;2023-11-19T14:48:07;12.88;;;2.60;;
22026;SDS011;11177;50.966;10.070;2023-11-19T14:50:34;10.00;;;2.38;;